createdAt,value
2022-11-29T00:00:15.361Z,86.54
2022-11-29T00:03:02.949Z,86.40
2022-11-29T00:05:30.418Z,86.34
2022-11-29T00:07:57.764Z,86.37
2022-11-29T00:10:25.100Z,86.05
2022-11-29T00:12:52.631Z,86.14
2022-11-29T00:15:20.061Z,86.33
2022-11-29T00:17:47.716Z,86.26
2022-11-29T00:20:15.161Z,86.57
2022-11-29T00:22:42.532Z,86.49
2022-11-29T00:25:09.930Z,86.72
2022-11-29T00:27:37.363Z,86.78
2022-11-29T00:30:04.982Z,86.68
2022-11-29T00:32:32.445Z,86.91
2022-11-29T00:35:01.266Z,86.77
2022-11-29T00:37:30.420Z,86.78
2022-11-29T00:39:57.786Z,86.81
2022-11-29T00:42:25.157Z,87.13
2022-11-29T00:44:52.894Z,87.09
2022-11-29T00:47:20.264Z,86.90
2022-11-29T00:49:47.817Z,86.96
2022-11-29T00:52:15.491Z,86.80
2022-11-29T00:54:43.265Z,86.57
2022-11-29T00:57:10.859Z,86.67
2022-11-29T00:59:38.229Z,86.94
2022-11-29T01:02:05.671Z,86.74
2022-11-29T01:04:33.172Z,87.00
2022-11-29T01:07:00.571Z,87.01
2022-11-29T01:09:27.928Z,87.02
2022-11-29T01:11:55.528Z,86.99
2022-11-29T01:14:22.868Z,86.98
2022-11-29T01:16:50.475Z,86.67
2022-11-29T01:19:17.883Z,86.96
2022-11-29T01:21:45.576Z,87.03
2022-11-29T01:24:13.122Z,86.83
2022-11-29T01:29:43.639Z,87.44
2022-11-29T01:32:11.025Z,87.33
2022-11-29T01:34:38.410Z,87.49
2022-11-29T01:37:06.077Z,87.50
2022-11-29T01:39:33.773Z,87.20
2022-11-29T01:42:01.342Z,87.25
2022-11-29T01:44:28.917Z,86.91
2022-11-29T01:46:56.366Z,87.03
2022-11-29T01:49:23.806Z,87.10
2022-11-29T01:51:51.276Z,87.07
2022-11-29T01:54:18.716Z,87.06
2022-11-29T01:56:49.218Z,86.98
2022-11-29T01:59:19.367Z,86.97
2022-11-29T02:01:47.182Z,87.05
2022-11-29T02:04:14.598Z,87.24
2022-11-29T02:06:42.119Z,87.77
2022-11-29T02:09:09.467Z,87.86
2022-11-29T02:11:36.808Z,88.08
2022-11-29T02:14:04.350Z,88.04
2022-11-29T02:16:31.808Z,87.75
2022-11-29T02:18:59.284Z,87.42
2022-11-29T02:21:26.729Z,86.89
2022-11-29T02:23:54.253Z,86.94
2022-11-29T02:26:21.737Z,86.84
2022-11-29T02:28:49.175Z,87.03
2022-11-29T02:31:16.591Z,87.00
2022-11-29T02:33:43.961Z,86.95
2022-11-29T02:36:11.333Z,86.91
2022-11-29T02:38:38.682Z,87.12
2022-11-29T02:41:06.017Z,87.29
2022-11-29T02:43:33.394Z,87.09
2022-11-29T02:46:00.837Z,86.68
2022-11-29T02:48:28.465Z,86.60
2022-11-29T02:50:55.868Z,86.51
2022-11-29T02:53:23.250Z,86.57
2022-11-29T02:55:50.593Z,86.58
2022-11-29T02:58:18.192Z,86.42
2022-11-29T03:00:45.826Z,86.31
2022-11-29T03:03:13.320Z,86.22
2022-11-29T03:05:40.864Z,86.55
2022-11-29T03:08:08.498Z,86.71
2022-11-29T03:10:35.874Z,86.41
2022-11-29T03:13:03.407Z,86.22
2022-11-29T03:15:31.134Z,86.20
2022-11-29T03:17:58.749Z,85.92
2022-11-29T03:20:26.479Z,86.08
2022-11-29T03:22:54.016Z,85.98
2022-11-29T03:25:21.844Z,86.00
2022-11-29T03:27:49.493Z,85.96
2022-11-29T03:30:16.928Z,86.08
2022-11-29T03:32:44.311Z,86.00
2022-11-29T03:35:12.020Z,86.02
2022-11-29T03:37:39.394Z,85.99
2022-11-29T03:40:06.983Z,86.09
2022-11-29T03:42:34.781Z,86.12
2022-11-29T03:45:02.531Z,86.49
2022-11-29T03:47:30.008Z,86.33
2022-11-29T03:49:57.457Z,86.22
2022-11-29T03:52:24.841Z,86.00
2022-11-29T03:54:52.472Z,86.04
2022-11-29T03:57:20.154Z,86.27
2022-11-29T03:59:47.875Z,86.23
2022-11-29T04:02:15.368Z,85.93
2022-11-29T04:04:43.584Z,85.99
2022-11-29T04:07:11.393Z,86.06
2022-11-29T04:09:38.838Z,85.98
2022-11-29T04:12:06.278Z,86.17
2022-11-29T04:14:34.024Z,85.99
2022-11-29T04:17:01.514Z,85.95
2022-11-29T04:19:28.912Z,85.87
2022-11-29T04:21:56.348Z,86.08
2022-11-29T04:24:23.805Z,86.10
2022-11-29T04:26:51.153Z,86.29
2022-11-29T04:29:18.814Z,86.06
2022-11-29T04:31:46.321Z,86.10
2022-11-29T04:34:13.758Z,85.99
2022-11-29T04:36:41.172Z,86.35
2022-11-29T04:39:08.831Z,86.48
2022-11-29T04:41:36.365Z,86.47
2022-11-29T04:44:04.129Z,86.51
2022-11-29T04:46:31.614Z,86.46
2022-11-29T04:48:59.156Z,86.66
2022-11-29T04:51:26.638Z,86.81
2022-11-29T04:53:54.027Z,86.61
2022-11-29T04:56:21.627Z,86.72
2022-11-29T04:58:49.033Z,86.72
2022-11-29T05:01:16.552Z,86.75
2022-11-29T05:03:46.653Z,86.72
2022-11-29T05:06:14.271Z,86.75
2022-11-29T05:08:41.911Z,86.95
2022-11-29T05:11:09.602Z,86.92
2022-11-29T05:13:37.278Z,86.87
2022-11-29T05:16:04.713Z,86.45
2022-11-29T05:18:32.310Z,86.37
2022-11-29T05:21:00.229Z,86.20
2022-11-29T05:23:27.592Z,86.22
2022-11-29T05:25:55.119Z,86.33
2022-11-29T05:28:22.633Z,86.62
2022-11-29T05:30:50.089Z,86.66
2022-11-29T05:33:17.540Z,86.79
2022-11-29T05:35:44.927Z,86.74
2022-11-29T05:38:12.419Z,86.94
2022-11-29T05:40:39.837Z,86.80
2022-11-29T05:43:07.264Z,86.71
2022-11-29T05:45:34.789Z,86.36
2022-11-29T05:48:02.154Z,86.54
2022-11-29T05:50:29.959Z,86.92
2022-11-29T05:52:57.399Z,86.85
2022-11-29T05:55:24.913Z,86.70
2022-11-29T05:57:52.389Z,86.67
2022-11-29T06:00:20.019Z,86.47
2022-11-29T06:02:47.508Z,86.55
2022-11-29T06:05:15.050Z,86.75
2022-11-29T06:07:42.520Z,86.37
2022-11-29T06:10:10.027Z,86.39
2022-11-29T06:12:37.531Z,86.22
2022-11-29T06:15:04.945Z,86.17
2022-11-29T06:17:38.565Z,86.16
2022-11-29T06:20:06.770Z,86.36
2022-11-29T06:22:34.356Z,86.48
2022-11-29T06:25:01.753Z,86.29
2022-11-29T06:27:29.302Z,86.02
2022-11-29T06:29:56.811Z,85.98
2022-11-29T06:32:24.173Z,86.36
2022-11-29T06:34:51.673Z,86.63
2022-11-29T06:37:19.118Z,87.19
2022-11-29T06:39:46.589Z,87.43
2022-11-29T06:42:14.085Z,87.48
2022-11-29T06:44:41.600Z,87.63
2022-11-29T06:47:08.989Z,87.40
2022-11-29T06:49:36.441Z,87.62
2022-11-29T06:52:03.818Z,87.50
2022-11-29T06:54:31.176Z,87.42
2022-11-29T06:56:58.728Z,87.47
2022-11-29T06:59:26.085Z,87.29
2022-11-29T07:01:53.511Z,87.45
2022-11-29T07:04:21.039Z,87.09
2022-11-29T07:06:48.410Z,87.18
2022-11-29T07:09:16.046Z,87.36
2022-11-29T07:11:43.576Z,87.21
2022-11-29T07:14:11.190Z,87.18
2022-11-29T07:16:38.660Z,87.25
2022-11-29T07:19:06.236Z,87.30
2022-11-29T07:21:33.886Z,87.20
2022-11-29T07:24:01.245Z,87.33
2022-11-29T07:26:28.893Z,87.16
2022-11-29T07:28:56.423Z,87.08
2022-11-29T07:31:23.873Z,87.22
2022-11-29T07:33:51.546Z,87.25
2022-11-29T07:36:19.030Z,87.33
2022-11-29T07:38:46.488Z,87.14
2022-11-29T07:41:13.985Z,87.10
2022-11-29T07:43:41.408Z,86.92
2022-11-29T07:46:08.872Z,86.71
2022-11-29T07:48:36.255Z,86.68
2022-11-29T07:51:03.611Z,86.64
2022-11-29T07:53:30.987Z,86.70
2022-11-29T07:55:58.505Z,86.67
2022-11-29T07:58:26.070Z,86.58
2022-11-29T08:00:53.713Z,86.51
2022-11-29T08:03:21.599Z,86.77
2022-11-29T08:05:49.416Z,86.61
2022-11-29T08:08:17.219Z,86.61
2022-11-29T08:10:44.626Z,86.65
2022-11-29T08:13:12.044Z,86.43
2022-11-29T08:15:39.628Z,86.65
2022-11-29T08:18:07.272Z,86.45
2022-11-29T08:20:34.616Z,86.38
2022-11-29T08:23:02.292Z,86.42
2022-11-29T08:25:29.681Z,86.47
2022-11-29T08:27:57.073Z,86.41
2022-11-29T08:30:24.535Z,86.47
2022-11-29T08:32:52.072Z,86.37
2022-11-29T08:35:19.410Z,86.38
2022-11-29T08:37:46.795Z,86.44
2022-11-29T08:40:14.921Z,86.69
2022-11-29T08:42:42.531Z,86.55
2022-11-29T08:45:09.943Z,86.39
2022-11-29T08:47:37.337Z,86.09
2022-11-29T08:50:04.908Z,86.30
2022-11-29T08:52:32.474Z,86.26
2022-11-29T08:55:03.194Z,86.15
2022-11-29T08:57:39.890Z,86.15
2022-11-29T09:00:08.045Z,85.83
2022-11-29T09:02:35.507Z,85.64
2022-11-29T09:05:03.040Z,85.60
2022-11-29T09:07:30.469Z,85.45
2022-11-29T09:09:58.210Z,85.58
2022-11-29T09:12:25.575Z,85.64
2022-11-29T09:14:53.005Z,85.63
2022-11-29T09:17:20.422Z,85.69
2022-11-29T09:19:47.812Z,85.37
2022-11-29T09:22:15.221Z,85.36
2022-11-29T09:24:42.827Z,85.62
2022-11-29T09:27:10.672Z,85.38
2022-11-29T09:29:38.164Z,85.36
2022-11-29T09:32:05.629Z,85.51
2022-11-29T09:34:33.044Z,85.61
2022-11-29T09:37:00.400Z,85.44
2022-11-29T09:39:27.840Z,85.41
2022-11-29T09:41:55.304Z,85.42
2022-11-29T09:44:22.723Z,85.54
2022-11-29T09:46:52.254Z,85.60
2022-11-29T09:49:23.186Z,85.38
2022-11-29T09:51:50.691Z,85.13
2022-11-29T09:54:18.158Z,84.95
2022-11-29T09:56:45.899Z,84.97
2022-11-29T09:59:13.266Z,84.84
2022-11-29T10:01:40.668Z,84.98
2022-11-29T10:04:08.315Z,85.01
2022-11-29T10:06:35.665Z,84.89
2022-11-29T10:09:03.365Z,84.58
2022-11-29T10:11:30.856Z,84.43
2022-11-29T10:13:58.386Z,84.39
2022-11-29T10:16:26.184Z,83.99
2022-11-29T10:18:53.633Z,83.79
2022-11-29T10:21:21.224Z,83.69
2022-11-29T10:23:48.578Z,83.69
2022-11-29T10:26:15.975Z,83.70
2022-11-29T10:28:43.340Z,83.42
2022-11-29T10:31:10.813Z,83.37
2022-11-29T10:33:38.252Z,83.26
2022-11-29T10:36:06.222Z,83.13
2022-11-29T10:38:34.611Z,83.00
2022-11-29T10:41:02.070Z,82.85
2022-11-29T10:43:29.464Z,82.40
2022-11-29T10:45:56.876Z,82.40
2022-11-29T10:48:24.324Z,82.33
2022-11-29T10:50:51.834Z,82.12
2022-11-29T10:53:19.493Z,81.48
2022-11-29T10:55:46.905Z,81.38
2022-11-29T10:58:14.287Z,81.54
2022-11-29T11:00:41.673Z,80.85
2022-11-29T11:03:09.008Z,80.67
2022-11-29T11:05:36.473Z,80.49
2022-11-29T11:08:03.918Z,80.35
2022-11-29T11:10:31.745Z,80.06
2022-11-29T11:12:59.389Z,80.04
2022-11-29T11:15:26.990Z,80.00
2022-11-29T11:17:54.509Z,79.85
2022-11-29T11:20:21.919Z,79.16
2022-11-29T11:22:49.507Z,79.04
2022-11-29T11:25:16.906Z,78.45
2022-11-29T11:27:44.328Z,78.34
2022-11-29T11:30:11.876Z,78.44
2022-11-29T11:32:39.466Z,78.06
2022-11-29T11:35:06.973Z,77.77
2022-11-29T11:37:34.338Z,77.73
2022-11-29T11:40:01.878Z,77.23
2022-11-29T11:42:29.294Z,77.49
2022-11-29T11:44:56.709Z,76.39
2022-11-29T11:47:24.058Z,76.47
2022-11-29T11:49:51.502Z,76.42
2022-11-29T11:52:18.899Z,76.12
2022-11-29T11:54:46.644Z,75.97
2022-11-29T11:57:14.246Z,76.52
2022-11-29T11:59:41.792Z,76.43
2022-11-29T12:02:09.254Z,76.43
2022-11-29T12:04:36.700Z,75.36
2022-11-29T12:07:04.300Z,75.19
2022-11-29T12:09:32.098Z,75.37
2022-11-29T12:11:59.624Z,75.52
2022-11-29T12:14:27.230Z,75.16
2022-11-29T12:16:54.804Z,74.94
2022-11-29T12:19:22.476Z,74.05
2022-11-29T12:21:49.917Z,74.51
2022-11-29T12:24:17.484Z,74.59
2022-11-29T12:27:00.669Z,74.85
2022-11-29T12:29:28.268Z,74.75
2022-11-29T12:31:55.750Z,74.29
2022-11-29T12:34:23.222Z,73.18
2022-11-29T12:36:50.835Z,73.15
2022-11-29T12:39:18.343Z,73.46
2022-11-29T12:41:50.945Z,73.28
2022-11-29T12:44:21.219Z,73.95
2022-11-29T12:46:48.730Z,72.88
2022-11-29T12:49:16.555Z,72.10
2022-11-29T12:51:44.010Z,72.10
2022-11-29T12:54:11.705Z,71.64
2022-11-29T12:56:39.387Z,70.41
2022-11-29T12:59:06.918Z,70.60
2022-11-29T13:01:34.724Z,71.07
2022-11-29T13:04:02.418Z,71.14
2022-11-29T13:06:29.801Z,71.68
2022-11-29T13:08:57.297Z,70.55
2022-11-29T13:11:24.634Z,68.62
2022-11-29T13:13:52.500Z,65.16
2022-11-29T13:16:23.945Z,61.76
2022-11-29T13:18:54.001Z,60.15
2022-11-29T13:21:21.682Z,58.34
2022-11-29T13:26:36.735Z,57.28
2022-11-29T13:29:04.183Z,54.85
2022-11-29T13:31:32.042Z,53.85
2022-11-29T13:33:59.790Z,53.81
2022-11-29T13:36:27.166Z,53.73
2022-11-29T13:38:54.557Z,52.62
2022-11-29T13:41:21.925Z,52.92
2022-11-29T13:43:49.490Z,52.95
2022-11-29T13:46:17.201Z,53.39
2022-11-29T13:48:44.943Z,53.91
2022-11-29T13:51:12.648Z,54.24
2022-11-29T13:53:43.901Z,54.26
2022-11-29T13:56:14.480Z,55.39
2022-11-29T13:58:41.923Z,55.50
2022-11-29T14:01:09.381Z,56.17
2022-11-29T14:03:36.886Z,56.99
2022-11-29T14:06:04.324Z,57.61
2022-11-29T14:08:48.077Z,58.27
2022-11-29T14:11:19.195Z,59.28
2022-11-29T14:13:47.245Z,59.92
2022-11-29T14:16:14.923Z,61.02
2022-11-29T14:18:42.476Z,62.12
2022-11-29T14:21:09.968Z,63.11
2022-11-29T14:23:37.353Z,64.22
2022-11-29T14:26:04.748Z,65.38
2022-11-29T14:28:32.626Z,66.57
2022-11-29T14:31:00.294Z,67.62
2022-11-29T14:33:27.979Z,68.32
2022-11-29T14:35:55.369Z,68.97
2022-11-29T14:38:27.720Z,70.24
2022-11-29T14:40:58.482Z,71.05
2022-11-29T14:43:25.875Z,71.90
2022-11-29T14:45:53.335Z,72.29
2022-11-29T14:48:20.718Z,72.92
2022-11-29T14:50:48.354Z,73.69
2022-11-29T14:53:15.836Z,74.48
2022-11-29T14:55:43.153Z,75.84
2022-11-29T14:58:10.695Z,75.96
2022-11-29T15:00:38.073Z,76.04
2022-11-29T15:03:05.507Z,76.68
2022-11-29T15:05:33.009Z,77.00
2022-11-29T15:08:00.511Z,77.30
2022-11-29T15:10:27.964Z,77.56
2022-11-29T15:12:55.518Z,78.44
2022-11-29T15:15:23.344Z,79.19
2022-11-29T15:17:50.752Z,79.58
2022-11-29T15:20:18.217Z,79.64
2022-11-29T15:22:45.715Z,80.21
2022-11-29T15:25:13.146Z,80.56
2022-11-29T15:27:40.543Z,80.74
2022-11-29T15:30:08.380Z,80.97
2022-11-29T15:32:35.959Z,80.95
2022-11-29T15:35:03.325Z,81.26
2022-11-29T15:37:31.015Z,81.18
2022-11-29T15:39:58.452Z,81.31
2022-11-29T15:42:31.212Z,81.46
2022-11-29T15:44:59.994Z,81.64
2022-11-29T15:47:27.615Z,81.72
2022-11-29T15:49:55.155Z,82.39
2022-11-29T15:52:22.636Z,82.50
2022-11-29T15:54:50.037Z,82.42
2022-11-29T15:57:17.520Z,82.50
2022-11-29T15:59:44.861Z,82.36
2022-11-29T16:02:12.443Z,82.53
2022-11-29T16:04:45.063Z,82.45
2022-11-29T16:07:14.188Z,82.34
2022-11-29T16:09:41.720Z,82.43
2022-11-29T16:12:09.121Z,82.47
2022-11-29T16:14:36.511Z,82.60
2022-11-29T16:17:04.048Z,82.48
2022-11-29T16:19:31.449Z,82.51
2022-11-29T16:21:58.804Z,82.76
2022-11-29T16:24:26.150Z,83.12
2022-11-29T16:26:53.500Z,83.79
2022-11-29T16:29:20.931Z,84.44
2022-11-29T16:31:48.625Z,84.45
2022-11-29T16:34:16.500Z,84.40
2022-11-29T16:36:43.878Z,84.96
2022-11-29T16:39:11.474Z,84.76
2022-11-29T16:41:39.054Z,85.09
2022-11-29T16:44:06.414Z,85.12
2022-11-29T16:46:34.083Z,85.25
2022-11-29T16:49:01.676Z,85.54
2022-11-29T16:51:29.157Z,85.57
2022-11-29T16:53:56.755Z,85.45
2022-11-29T16:56:24.182Z,85.89
2022-11-29T16:59:20.698Z,85.98
2022-11-29T17:01:39.079Z,86.16
2022-11-29T17:04:06.472Z,86.57
2022-11-29T17:06:33.887Z,86.84
2022-11-29T17:09:05.173Z,86.99
2022-11-29T17:11:32.633Z,86.86
2022-11-29T17:14:00.193Z,86.97
2022-11-29T17:16:27.592Z,86.96
2022-11-29T17:18:55.509Z,87.05
2022-11-29T17:21:23.140Z,87.70
2022-11-29T17:23:50.702Z,88.11
2022-11-29T17:26:18.331Z,88.14
2022-11-29T17:28:46.000Z,87.63
2022-11-29T17:31:13.463Z,87.77
2022-11-29T17:33:40.957Z,87.66
2022-11-29T17:36:08.647Z,87.33
2022-11-29T17:38:36.025Z,87.35
2022-11-29T17:41:03.807Z,87.20
2022-11-29T17:43:31.555Z,87.19
2022-11-29T17:45:59.036Z,87.52
2022-11-29T17:48:32.008Z,87.78
2022-11-29T17:51:00.897Z,87.67
2022-11-29T17:53:28.638Z,88.03
2022-11-29T17:55:56.031Z,87.63
2022-11-29T17:58:23.768Z,88.00
2022-11-29T18:00:51.212Z,87.77
2022-11-29T18:03:18.626Z,88.50
2022-11-29T18:05:46.044Z,88.23
2022-11-29T18:08:13.383Z,88.10
2022-11-29T18:10:40.755Z,87.65
2022-11-29T18:13:08.124Z,87.65
2022-11-29T18:15:35.605Z,87.56
2022-11-29T18:18:03.003Z,87.49
2022-11-29T18:20:30.451Z,87.35
2022-11-29T18:22:57.829Z,87.47
2022-11-29T18:25:40.640Z,87.31
2022-11-29T18:28:08.125Z,87.31
2022-11-29T18:30:35.739Z,87.22
2022-11-29T18:33:03.252Z,87.43
2022-11-29T18:35:30.880Z,87.59
2022-11-29T18:38:14.822Z,87.49
2022-11-29T18:40:42.910Z,87.36
2022-11-29T18:43:10.474Z,87.06
2022-11-29T18:45:38.028Z,87.02
2022-11-29T18:48:05.698Z,87.17
2022-11-29T18:50:33.304Z,87.07
2022-11-29T18:53:00.718Z,87.11
2022-11-29T18:55:28.132Z,87.09
2022-11-29T18:57:55.514Z,87.22
2022-11-29T19:00:22.868Z,87.13
2022-11-29T19:02:50.557Z,86.97
2022-11-29T19:05:18.183Z,87.20
2022-11-29T19:07:45.689Z,87.15
2022-11-29T19:10:13.250Z,87.17
2022-11-29T19:12:41.047Z,86.99
2022-11-29T19:15:08.430Z,87.09
2022-11-29T19:17:41.664Z,86.84
2022-11-29T19:20:10.428Z,86.86
2022-11-29T19:22:38.287Z,87.36
2022-11-29T19:25:05.716Z,87.42
2022-11-29T19:27:33.449Z,87.40
2022-11-29T19:30:00.820Z,87.18
2022-11-29T19:32:28.186Z,86.94
2022-11-29T19:34:55.574Z,86.93
2022-11-29T19:37:22.968Z,87.21
2022-11-29T19:39:50.714Z,87.41
2022-11-29T19:42:18.334Z,87.19
2022-11-29T19:45:15.300Z,87.34
2022-11-29T19:47:33.204Z,87.51
2022-11-29T19:50:02.550Z,87.60
2022-11-29T19:52:31.553Z,87.87
2022-11-29T19:54:59.218Z,88.14
2022-11-29T19:57:26.567Z,87.78
2022-11-29T19:59:53.968Z,87.49
2022-11-29T20:02:21.478Z,87.60
2022-11-29T20:04:49.001Z,87.94
2022-11-29T20:07:17.047Z,87.76
2022-11-29T20:09:45.275Z,87.71
2022-11-29T20:12:13.168Z,87.60
2022-11-29T20:14:40.561Z,87.69
2022-11-29T20:17:08.312Z,87.73
2022-11-29T20:19:35.801Z,87.65
2022-11-29T20:22:03.495Z,87.72
2022-11-29T20:24:36.640Z,87.98
2022-11-29T20:27:06.882Z,87.80
2022-11-29T20:29:34.575Z,87.57
2022-11-29T20:32:01.977Z,87.58
2022-11-29T20:34:29.866Z,87.65
2022-11-29T20:36:57.314Z,87.84
2022-11-29T20:39:25.748Z,87.75
2022-11-29T20:41:53.125Z,87.80
2022-11-29T20:44:20.540Z,87.90
2022-11-29T20:46:48.176Z,87.92
2022-11-29T20:49:15.599Z,87.80
2022-11-29T20:51:43.019Z,88.07
2022-11-29T20:54:10.829Z,87.96
2022-11-29T20:56:38.313Z,88.13
2022-11-29T20:59:05.718Z,88.00
2022-11-29T21:01:33.145Z,87.91
2022-11-29T21:04:00.598Z,87.90
2022-11-29T21:06:28.040Z,87.80
2022-11-29T21:08:55.406Z,87.95
2022-11-29T21:11:22.813Z,88.15
2022-11-29T21:13:50.246Z,87.99
2022-11-29T21:16:17.645Z,87.87
2022-11-29T21:18:45.137Z,88.02
2022-11-29T21:21:12.528Z,88.15
2022-11-29T21:23:40.193Z,88.15
2022-11-29T21:26:07.822Z,88.22
2022-11-29T21:28:35.678Z,88.17
2022-11-29T21:31:04.183Z,88.13
2022-11-29T21:33:33.532Z,88.00
2022-11-29T21:36:00.913Z,88.11
2022-11-29T21:38:28.280Z,88.62
2022-11-29T21:40:55.651Z,88.41
2022-11-29T21:43:43.677Z,88.26
2022-11-29T21:46:10.447Z,88.28
2022-11-29T21:48:38.012Z,88.27
2022-11-29T21:51:05.518Z,88.21
2022-11-29T21:53:33.015Z,88.24
2022-11-29T21:56:00.396Z,88.22
2022-11-29T21:58:27.797Z,88.27
2022-11-29T22:00:55.160Z,88.24
2022-11-29T22:03:22.564Z,88.24
2022-11-29T22:05:49.993Z,88.22
2022-11-29T22:08:17.395Z,88.10
2022-11-29T22:10:44.801Z,88.15
2022-11-29T22:13:12.495Z,88.35
2022-11-29T22:15:40.066Z,88.28
2022-11-29T22:18:07.462Z,88.35
2022-11-29T22:20:35.016Z,88.35
2022-11-29T22:23:02.523Z,88.28
2022-11-29T22:25:30.064Z,88.20
2022-11-29T22:27:57.602Z,88.05
2022-11-29T22:30:25.536Z,88.19
2022-11-29T22:32:53.064Z,88.17
2022-11-29T22:35:20.679Z,88.23
2022-11-29T22:37:48.314Z,88.26
2022-11-29T22:40:15.754Z,88.44
2022-11-29T22:42:43.318Z,88.46
2022-11-29T22:45:10.834Z,88.27
2022-11-29T22:47:38.220Z,88.32
2022-11-29T22:50:05.880Z,88.40
2022-11-29T22:52:33.549Z,88.34
2022-11-29T22:55:04.736Z,88.40
2022-11-29T22:57:32.742Z,88.58
2022-11-29T23:00:00.120Z,88.40
2022-11-29T23:02:27.655Z,88.33
2022-11-29T23:04:55.158Z,88.27
2022-11-29T23:07:22.549Z,88.40
2022-11-29T23:09:50.236Z,88.29
2022-11-29T23:12:17.864Z,88.27
2022-11-29T23:14:45.520Z,88.09
2022-11-29T23:17:13.387Z,88.00
2022-11-29T23:19:41.093Z,88.07
2022-11-29T23:22:08.617Z,88.12
2022-11-29T23:24:36.011Z,88.17
2022-11-29T23:27:03.352Z,88.40
2022-11-29T23:29:30.713Z,88.37
2022-11-29T23:31:58.118Z,88.07
2022-11-29T23:34:25.509Z,88.17
2022-11-29T23:36:53.371Z,88.23
2022-11-29T23:39:20.904Z,88.15
2022-11-29T23:41:48.313Z,88.17
2022-11-29T23:44:15.913Z,88.20
2022-11-29T23:46:43.429Z,88.25
2022-11-29T23:49:11.036Z,88.22
2022-11-29T23:51:38.365Z,88.29
2022-11-29T23:54:05.765Z,88.31
2022-11-29T23:56:33.438Z,88.10
2022-11-29T23:59:00.899Z,88.10
